Winifreda, Argentina
Current Conditions -  °F | °C
As of 7:00 AM on Saturday 22 Nov 2014 (Local Time) from SAOC Reporting Station
Clear Clear  
Wind Chill: 12°   Ceiling: Unl
Heat Index: 12°   Visibility: 6mi
Dew Point: 10°   Wind: 13mph
Humidity: 88%   Direction: 230°SW
Pressure: 29.97"   Gusts: NA
Location:  36.25°S, 64.23°W
Report Text: SAOC 221000Z 23011KT CAVOK 12/10 Q1015
Loading
Personal Weather Stations






























Interactive Weather Map New forecast layout! Learn more

10-Day Weather Forecast

Advertisements
Track Severe Weather on mobile